Flight Track Log - Related Links

Times and Time Zones

All times are in EDT time to prevent confusion due to time zone crossing. See the ASQ5738 flight status page for this flight to view local times or setup timezone preferences in your user account.

Time Position Orientation Groundspeed Altitude Reporting Facility
EDT Latitude Longitude Course Direction KTS MPH feet Rate Location/Type
Thu 03:29:16 PM 32.9053 -79.9706 13° North 236 272 4,600  Level Jacksonville Center
Thu 03:30:16 PM 32.9536 -79.8997 51° Northeast 291 335 5,000 650 Climbing Jacksonville Center
Thu 03:31:00 PM 33.2794 -79.9208 North  Level FlightAware Approximate
Thu 03:31:16 PM 32.9894 -79.8242 60° Northeast 303 349 5,900  Level Jacksonville Center
Thu 03:32:00 PM 33.3756 -79.8816 North  Level FlightAware Approximate
Thu 03:32:16 PM 33.0225 -79.7339 66° East 293 337 9,100  Level Jacksonville Center
Thu 03:33:00 PM 33.4761 -79.8592 13° North  Level FlightAware Approximate
Thu 03:33:16 PM 33.0556 -79.6361 68° East 293 337 11,000  Level Jacksonville Center
Thu 03:34:00 PM 33.5755 -79.8308 13° North  Level FlightAware Approximate
Thu 03:34:16 PM 33.0925 -79.5281 68° East 326 375 13,500  Level Jacksonville Center
Thu 03:35:16 PM 33.1678 -79.4608 37° Northeast 331 381 15,800 2,150 Climbing Jacksonville Center
Thu 03:36:16 PM 33.2600 -79.4722 354° North 291 335 17,800 2,000 Climbing Jacksonville Center
Thu 03:37:16 PM 33.3503 -79.4911 350° North 296 341 19,800 1,800 Climbing Jacksonville Center
Thu 03:38:16 PM 33.4406 -79.5075 351° North 309 356 21,400 1,550 Climbing Jacksonville Center
Thu 03:39:16 PM 33.5369 -79.5261 351° North 329 379 22,900 1,300 Climbing Jacksonville Center
Thu 03:40:16 PM 33.6292 -79.5425 352° North 335 386 24,000 550 Climbing Jacksonville Center
Thu 03:41:16 PM 33.7339 -79.5611 352° North 350 403 24,000 100 Level Jacksonville Center
Thu 03:42:16 PM 33.8453 -79.5819 351° North 379 436 24,200 800 Climbing Jacksonville Center
Thu 03:43:16 PM 33.9542 -79.6003 352° North 392 451 25,600 1,400 Climbing Jacksonville Center
Thu 03:44:16 PM 34.0569 -79.6217 350° North 398 458 27,000 1,400 Climbing Jacksonville Center
Thu 03:45:16 PM 34.1617 -79.6428 351° North 393 452 28,400 1,250 Climbing Jacksonville Center
Thu 03:46:16 PM 34.2744 -79.6411 North 388 447 29,500 898 Climbing Jacksonville Center
Thu 03:48:03 PM 34.4719 -79.5319 24° Northeast 413 475 30,900 539 Climbing Washington Center
Thu 03:49:03 PM 34.5889 -79.4719 23° Northeast 418 481 31,000 50 Climbing Washington Center
Thu 03:50:03 PM 34.7056 -79.4119 23° Northeast 437 503 31,000  Level Washington Center
Thu 03:51:03 PM 34.8286 -79.3442 24° Northeast 460 529 31,000 -400 Level Washington Center
Thu 03:52:03 PM 34.9558 -79.2792 23° Northeast 473 544 30,200 -950 Descending Washington Center
Thu 03:53:03 PM 35.0872 -79.2089 24° Northeast 493 567 29,100 -600 Descending Washington Center
Thu 03:54:03 PM 35.2103 -79.1433 24° Northeast 493 567 29,000 -50 Descending Washington Center
Thu 03:55:03 PM 35.3269 -79.0797 24° Northeast 487 560 29,000  Level Washington Center
Thu 03:56:03 PM 35.4625 -79.0117 22° Northeast 487 560 29,000  Level Washington Center
Thu 03:57:03 PM 35.5897 -78.9381 25° Northeast 487 560 29,000  Level Washington Center
Thu 03:58:03 PM 35.7189 -78.8667 24° Northeast 492 566 29,000 -100 Level Washington Center
Thu 03:59:03 PM 35.8461 -78.7978 24° Northeast 492 566 28,800 -400 Descending Washington Center
Thu 04:00:03 PM 35.9753 -78.7233 25° Northeast 492 566 28,200 -550 Descending Washington Center
Thu 04:01:03 PM 36.0769 -78.6683 24° Northeast 492 566 27,700 -550 Descending Washington Center
Thu 04:02:03 PM 36.2167 -78.5886 25° Northeast 492 566 27,100 -350 Descending Washington Center
Thu 04:03:03 PM 36.3436 -78.5189 24° Northeast 492 566 27,000 -50 Descending Washington Center
Thu 04:04:03 PM 36.4686 -78.4433 26° Northeast 492 566 27,000  Level Washington Center
Thu 04:05:03 PM 36.5975 -78.3731 24° Northeast 486 559 27,000  Level Washington Center
Thu 04:06:03 PM 36.7369 -78.2900 26° Northeast 491 565 27,000 -250 Level Washington Center
Thu 04:07:03 PM 36.8597 -78.2189 25° Northeast 491 565 26,500 -600 Descending Washington Center
Thu 04:08:03 PM 36.9758 -78.1500 25° Northeast 472 543 25,800 -600 Descending Washington Center
Thu 04:09:03 PM 37.0836 -78.0886 24° Northeast 444 511 25,300 -550 Descending Washington Center
Thu 04:10:03 PM 37.1869 -78.0267 26° Northeast 420 483 24,700 -600 Descending Washington Center
Thu 04:11:03 PM 37.2883 -77.9675 25° Northeast 405 466 24,100 -600 Descending Washington Center
Thu 04:12:03 PM 37.3853 -77.9103 25° Northeast 392 451 23,500 -600 Descending Washington Center
Thu 04:13:03 PM 37.4825 -77.8556 24° Northeast 382 440 22,900 -600 Descending Washington Center
Thu 04:14:03 PM 37.5794 -77.7983 25° Northeast 382 440 22,300 -600 Descending Washington Center
Thu 04:15:03 PM 37.6786 -77.7408 25° Northeast 382 440 21,700 -600 Descending Washington Center
Thu 04:16:03 PM 37.7733 -77.6831 26° Northeast 382 440 21,100 -1,150 Descending Washington Center
Thu 04:17:03 PM 37.8722 -77.6278 24° Northeast 388 447 19,400 -2,200 Descending Washington Center
Thu 04:18:03 PM 37.9650 -77.5725 25° Northeast 382 440 16,700 -2,800 Descending Washington Center
Thu 04:19:03 PM 38.0492 -77.5272 23° Northeast 361 415 13,800 -2,950 Descending Washington Center
Thu 04:20:03 PM 38.1292 -77.4792 25° Northeast 332 382 10,800 -1,900 Descending Washington Center
Thu 04:21:03 PM 38.1967 -77.4411 24° Northeast 299 344 10,000 -400 Descending Washington Center
Thu 04:22:03 PM 38.2681 -77.4033 23° Northeast 281 323 10,000 -550 Level Washington Center
Thu 04:23:03 PM 38.3322 -77.4392 336° Northwest 249 287 8,900 -1,700 Descending Washington Center
Thu 04:24:03 PM 38.4092 -77.4492 354° North 248 285 6,600 -2,000 Descending Washington Center
Thu 04:25:03 PM 38.4822 -77.4483 North 261 300 4,900 -1,750 Descending Washington Center
Thu 04:26:03 PM 38.5550 -77.4475 North 261 300 3,100 -900 Descending Washington Center
Thu 04:27:03 PM 38.6333 -77.4333 North 259 298 3,100 -50 Level Potomac TRACON
Thu 04:28:03 PM 38.7000 -77.4333 360° North 239 275 3,000 -50 Descending Potomac TRACON
Thu 04:29:04 PM 38.7667 -77.4333 360° North 226 260 3,000  Level Potomac TRACON

Login

Don't have an account? Register now (free) for customized features, flight alerts, and more!